Time,TemperatureF,DewpointF,PressureIn,WindDirection,WindDirectionDegrees,WindSpeedMPH,WindSpeedGustMPH,Humidity,HourlyPrecipIn,Conditions,Clouds,dailyrainin,SoftwareType,DateUTC
2013-04-18 00:00:00,62.5,56.9,29.98,South,186,0.0,0.0,82,0.00,,,0.15,Wunderground v.1.15,2013-04-18 04:00:00,
2013-04-18 00:10:00,62.3,57.1,29.97,South,186,0.0,0.0,83,0.00,,,0.00,Wunderground v.1.15,2013-04-18 04:10:00,
2013-04-18 00:20:00,62.2,57.0,29.97,South,186,0.0,0.0,83,0.00,,,0.00,Wunderground v.1.15,2013-04-18 04:20:00,
2013-04-18 00:30:00,62.0,57.1,29.97,South,186,0.0,0.0,84,0.00,,,0.00,Wunderground v.1.15,2013-04-18 04:30:00,
2013-04-18 00:40:00,61.8,56.9,29.97,South,186,0.0,0.0,84,0.00,,,0.00,Wunderground v.1.15,2013-04-18 04:40:00,
2013-04-18 00:50:00,61.6,56.7,29.97,South,186,0.0,0.0,84,0.00,,,0.00,Wunderground v.1.15,2013-04-18 04:50:00,
2013-04-18 01:00:00,61.4,56.8,29.96,South,186,0.0,0.0,85,0.00,,,0.00,Wunderground v.1.15,2013-04-18 05:00:00,
2013-04-18 01:10:00,61.2,56.7,29.96,South,186,0.0,0.0,85,0.00,,,0.00,Wunderground v.1.15,2013-04-18 05:10:00,
2013-04-18 01:20:00,61.1,56.9,29.96,South,186,0.0,0.0,86,0.00,,,0.00,Wunderground v.1.15,2013-04-18 05:20:00,
2013-04-18 01:30:00,61.0,56.8,29.96,South,186,0.0,0.0,86,0.00,,,0.00,Wunderground v.1.15,2013-04-18 05:30:00,
2013-04-18 01:40:00,61.1,56.9,29.96,South,186,0.0,0.0,86,0.00,,,0.00,Wunderground v.1.15,2013-04-18 05:40:00,
2013-04-18 01:50:00,61.3,57.1,29.97,South,186,0.0,0.0,86,0.00,,,0.00,Wunderground v.1.15,2013-04-18 05:50:00,
2013-04-18 02:00:00,61.5,56.9,29.97,South,186,0.0,0.0,85,0.00,,,0.00,Wunderground v.1.15,2013-04-18 06:00:00,
2013-04-18 02:10:00,61.7,57.1,29.97,South,186,0.0,0.0,85,0.00,,,0.00,Wunderground v.1.15,2013-04-18 06:10:00,
2013-04-18 02:20:00,61.8,57.2,29.97,South,186,0.0,0.0,85,0.00,,,0.00,Wunderground v.1.15,2013-04-18 06:20:00,
2013-04-18 02:30:00,61.7,57.1,29.97,South,186,0.0,0.0,85,0.00,,,0.00,Wunderground v.1.15,2013-04-18 06:30:00,
2013-04-18 02:40:00,61.8,57.2,29.96,South,186,0.0,0.0,85,0.00,,,0.00,Wunderground v.1.15,2013-04-18 06:40:00,
2013-04-18 02:50:00,61.9,57.3,29.95,South,186,0.0,0.0,85,0.00,,,0.00,Wunderground v.1.15,2013-04-18 06:50:00,
2013-04-18 03:00:00,61.9,57.3,29.95,South,186,0.0,0.0,85,0.00,,,0.00,Wunderground v.1.15,2013-04-18 07:00:00,
2013-04-18 03:10:00,61.9,57.3,29.95,South,186,0.0,0.0,85,0.00,,,0.00,Wunderground v.1.15,2013-04-18 07:10:00,
2013-04-18 03:20:00,62.0,57.4,29.95,South,186,0.0,0.0,85,0.00,,,0.00,Wunderground v.1.15,2013-04-18 07:20:00,
2013-04-18 03:30:00,62.0,57.4,29.95,South,186,0.0,0.0,85,0.00,,,0.00,Wunderground v.1.15,2013-04-18 07:30:00,
2013-04-18 03:40:00,62.0,57.4,29.95,South,186,0.0,0.0,85,0.00,,,0.00,Wunderground v.1.15,2013-04-18 07:40:00,
2013-04-18 03:50:00,62.0,57.4,29.95,South,186,0.0,0.0,85,0.00,,,0.00,Wunderground v.1.15,2013-04-18 07:50:00,
2013-04-18 04:00:00,62.0,57.4,29.94,South,186,0.0,0.0,85,0.00,,,0.00,Wunderground v.1.15,2013-04-18 08:00:00,
2013-04-18 04:10:00,62.0,57.4,29.94,South,186,0.0,0.0,85,0.00,,,0.00,Wunderground v.1.15,2013-04-18 08:10:00,
2013-04-18 04:20:00,62.0,57.4,29.94,South,186,0.0,0.0,85,0.00,,,0.00,Wunderground v.1.15,2013-04-18 08:20:00,
2013-04-18 04:30:00,62.0,57.4,29.94,South,186,0.0,0.0,85,0.00,,,0.00,Wunderground v.1.15,2013-04-18 08:30:00,
2013-04-18 04:40:00,62.0,57.4,29.94,South,186,0.0,0.0,85,0.00,,,0.00,Wunderground v.1.15,2013-04-18 08:40:00,
2013-04-18 04:50:00,61.9,57.3,29.94,South,186,0.0,0.0,85,0.00,,,0.00,Wunderground v.1.15,2013-04-18 08:50:00,
2013-04-18 05:00:00,61.7,57.5,29.94,South,186,0.0,0.0,86,0.00,,,0.00,Wunderground v.1.15,2013-04-18 09:00:00,
2013-04-18 05:10:00,61.5,57.3,29.94,South,186,0.0,0.0,86,0.00,,,0.00,Wunderground v.1.15,2013-04-18 09:10:00,
2013-04-18 05:20:00,61.3,57.4,29.95,South,186,0.0,0.0,87,0.00,,,0.00,Wunderground v.1.15,2013-04-18 09:20:00,
2013-04-18 05:30:00,61.2,57.3,29.95,South,186,0.0,0.0,87,0.00,,,0.00,Wunderground v.1.15,2013-04-18 09:30:00,
2013-04-18 05:40:00,61.1,57.5,29.95,South,186,0.0,0.0,88,0.00,,,0.00,Wunderground v.1.15,2013-04-18 09:40:00,
2013-04-18 05:50:00,61.0,57.4,29.95,South,186,0.0,0.0,88,0.00,,,0.00,Wunderground v.1.15,2013-04-18 09:50:00,
2013-04-18 06:00:00,60.9,57.3,29.95,South,186,0.0,0.0,88,0.00,,,0.00,Wunderground v.1.15,2013-04-18 10:00:00,
2013-04-18 06:10:00,60.9,57.6,29.96,South,186,0.0,0.0,89,0.00,,,0.00,Wunderground v.1.15,2013-04-18 10:10:00,
2013-04-18 06:20:00,60.8,57.5,29.96,South,186,0.0,0.0,89,0.00,,,0.00,Wunderground v.1.15,2013-04-18 10:20:00,
2013-04-18 06:30:00,60.7,57.4,29.96,South,186,0.0,0.0,89,0.00,,,0.00,Wunderground v.1.15,2013-04-18 10:30:00,
2013-04-18 06:40:00,60.6,57.7,29.96,South,186,0.0,0.0,90,0.00,,,0.00,Wunderground v.1.15,2013-04-18 10:40:00,
2013-04-18 06:50:00,60.5,57.6,29.96,South,186,0.0,0.0,90,0.00,,,0.00,Wunderground v.1.15,2013-04-18 10:50:00,
2013-04-18 07:00:00,60.3,57.4,29.97,South,186,0.0,0.0,90,0.00,,,0.00,Wunderground v.1.15,2013-04-18 11:00:00,
2013-04-18 07:10:00,60.2,57.3,29.97,South,186,0.0,0.0,90,0.00,,,0.00,Wunderground v.1.15,2013-04-18 11:10:00,
2013-04-18 07:20:00,60.2,57.6,29.97,South,186,0.0,0.0,91,0.00,,,0.00,Wunderground v.1.15,2013-04-18 11:20:00,
2013-04-18 07:30:00,60.1,57.5,29.97,South,186,0.0,0.0,91,0.00,,,0.00,Wunderground v.1.15,2013-04-18 11:30:00,
2013-04-18 07:40:00,60.2,57.9,29.98,South,186,0.0,0.0,92,0.00,,,0.00,Wunderground v.1.15,2013-04-18 11:40:00,
2013-04-18 07:50:00,60.4,58.1,29.98,South,186,0.0,0.0,92,0.00,,,0.00,Wunderground v.1.15,2013-04-18 11:50:00,
2013-04-18 08:00:00,60.9,58.9,29.98,South,186,0.0,0.0,93,0.00,,,0.00,Wunderground v.1.15,2013-04-18 12:00:00,
2013-04-18 08:10:00,61.3,59.3,29.98,South,186,0.0,0.0,93,0.00,,,0.00,Wunderground v.1.15,2013-04-18 12:10:00,
2013-04-18 08:20:00,61.6,59.3,29.98,South,188,0.0,1.0,92,0.00,,,0.00,Wunderground v.1.15,2013-04-18 12:20:00,
2013-04-18 08:30:00,61.8,59.5,29.98,South,188,0.0,0.0,92,0.00,,,0.00,Wunderground v.1.15,2013-04-18 12:30:00,
2013-04-18 08:40:00,62.1,59.7,29.98,SSW,208,1.0,1.0,92,0.00,,,0.00,Wunderground v.1.15,2013-04-18 12:40:00,
2013-04-18 08:50:00,62.4,59.7,29.98,SSW,208,0.0,0.0,91,0.00,,,0.00,Wunderground v.1.15,2013-04-18 12:50:00,
2013-04-18 09:00:00,63.0,60.3,29.98,SSW,198,1.0,1.0,91,0.00,,,0.00,Wunderground v.1.15,2013-04-18 13:00:00,
2013-04-18 09:10:00,63.6,60.6,29.98,South,180,2.0,2.0,90,0.00,,,0.00,Wunderground v.1.15,2013-04-18 13:10:00,
2013-04-18 09:20:00,64.0,60.4,29.97,South,184,3.0,3.0,88,0.00,,,0.00,Wunderground v.1.15,2013-04-18 13:20:00,
2013-04-18 09:30:00,64.8,60.8,29.97,South,180,2.0,2.0,87,0.00,,,0.00,Wunderground v.1.15,2013-04-18 13:30:00,
2013-04-18 09:40:00,65.6,61.3,29.97,SSE,163,2.0,8.0,86,0.00,,,0.00,Wunderground v.1.15,2013-04-18 13:40:00,
2013-04-18 09:50:00,65.7,61.1,29.97,SSE,161,3.0,3.0,85,0.00,,,0.00,Wunderground v.1.15,2013-04-18 13:50:00,
2013-04-18 10:00:00,65.6,61.0,29.97,SSW,194,2.0,2.0,85,0.00,,,0.00,Wunderground v.1.15,2013-04-18 14:00:00,
2013-04-18 10:10:00,65.4,60.8,29.97,South,186,2.0,2.0,85,0.00,,,0.00,Wunderground v.1.15,2013-04-18 14:10:00,
2013-04-18 10:20:00,65.0,60.7,29.98,South,179,2.0,2.0,86,0.00,,,0.00,Wunderground v.1.15,2013-04-18 14:20:00,
2013-04-18 10:30:00,64.7,60.7,29.98,SSW,200,2.0,3.0,87,0.00,,,0.00,Wunderground v.1.15,2013-04-18 14:30:00,
2013-04-18 10:40:00,64.5,60.5,29.98,SSW,202,2.0,2.0,87,0.00,,,0.00,Wunderground v.1.15,2013-04-18 14:40:00,
2013-04-18 10:50:00,64.5,60.5,29.98,South,187,2.0,2.0,87,0.00,,,0.00,Wunderground v.1.15,2013-04-18 14:50:00,
2013-04-18 11:00:00,64.6,60.6,29.98,SSW,213,2.0,3.0,87,0.00,,,0.00,Wunderground v.1.15,2013-04-18 15:00:00,
2013-04-18 11:10:00,64.6,60.6,29.98,SSW,206,1.0,3.0,87,0.00,,,0.00,Wunderground v.1.15,2013-04-18 15:10:00,
2013-04-18 11:20:00,64.5,60.5,29.98,South,180,2.0,2.0,87,0.00,,,0.00,Wunderground v.1.15,2013-04-18 15:20:00,
2013-04-18 11:30:00,64.5,60.2,29.98,NW,304,2.0,2.0,86,0.00,,,0.00,Wunderground v.1.15,2013-04-18 15:30:00,
2013-04-18 11:40:00,64.7,60.4,29.98,South,184,2.0,2.0,86,0.00,,,0.00,Wunderground v.1.15,2013-04-18 15:40:00,
2013-04-18 11:50:00,65.0,60.4,29.98,SSW,197,3.0,5.0,85,0.00,,,0.00,Wunderground v.1.15,2013-04-18 15:50:00,
2013-04-18 12:00:00,65.3,60.7,29.97,South,173,3.0,3.0,85,0.00,,,0.00,Wunderground v.1.15,2013-04-18 16:00:00,
2013-04-18 12:10:00,65.3,60.3,29.97,WSW,251,3.0,3.0,84,0.00,,,0.00,Wunderground v.1.15,2013-04-18 16:10:00,
2013-04-18 12:20:00,65.3,60.3,29.96,South,186,3.0,3.0,84,0.00,,,0.00,Wunderground v.1.15,2013-04-18 16:20:00,
2013-04-18 12:30:00,65.7,60.4,29.96,South,182,2.0,4.0,83,0.00,,,0.00,Wunderground v.1.15,2013-04-18 16:30:00,
2013-04-18 12:40:00,66.2,60.5,29.96,SSW,206,3.0,3.0,82,0.00,,,0.00,Wunderground v.1.15,2013-04-18 16:40:00,
2013-04-18 12:50:00,67.5,60.8,29.95,South,176,3.0,6.0,79,0.00,,,0.00,Wunderground v.1.15,2013-04-18 16:50:00,
2013-04-18 13:00:00,68.0,60.5,29.95,SW,216,4.0,7.0,77,0.00,,,0.00,Wunderground v.1.15,2013-04-18 17:00:00,
2013-04-18 13:10:00,68.0,60.2,29.94,SSW,196,5.0,5.0,76,0.00,,,0.00,Wunderground v.1.15,2013-04-18 17:10:00,
2013-04-18 13:20:00,67.7,59.5,29.94,South,191,4.0,4.0,75,0.00,,,0.00,Wunderground v.1.15,2013-04-18 17:20:00,
2013-04-18 13:30:00,68.9,60.3,29.93,SSW,205,5.0,5.0,74,0.00,,,0.00,Wunderground v.1.15,2013-04-18 17:30:00,
2013-04-18 13:40:00,69.5,59.7,29.93,South,183,4.0,5.0,71,0.00,,,0.00,Wunderground v.1.15,2013-04-18 17:40:00,
2013-04-18 13:50:00,69.7,59.9,29.93,South,171,5.0,5.0,71,0.00,,,0.00,Wunderground v.1.15,2013-04-18 17:50:00,
2013-04-18 14:00:00,70.8,60.5,29.92,SSW,195,4.0,4.0,70,0.00,,,0.00,Wunderground v.1.15,2013-04-18 18:00:00,
2013-04-18 14:10:00,71.2,60.1,29.92,SSW,197,5.0,5.0,68,0.00,,,0.00,Wunderground v.1.15,2013-04-18 18:10:00,
2013-04-18 14:20:00,72.1,60.1,29.92,South,176,5.0,5.0,66,0.00,,,0.00,Wunderground v.1.15,2013-04-18 18:20:00,
2013-04-18 14:30:00,71.2,59.7,29.92,SSE,165,5.0,5.0,67,0.00,,,0.00,Wunderground v.1.15,2013-04-18 18:30:00,
2013-04-18 14:40:00,71.8,59.4,29.91,South,187,4.0,4.0,65,0.00,,,0.00,Wunderground v.1.15,2013-04-18 18:40:00,
2013-04-18 14:50:00,72.5,60.1,29.91,SSW,196,7.0,7.0,65,0.00,,,0.00,Wunderground v.1.15,2013-04-18 18:50:00,
2013-04-18 15:00:00,72.7,58.9,29.90,SSW,203,7.0,7.0,62,0.00,,,0.00,Wunderground v.1.15,2013-04-18 19:00:00,
2013-04-18 15:10:00,71.7,58.4,29.90,SSW,211,6.0,6.0,63,0.00,,,0.00,Wunderground v.1.15,2013-04-18 19:10:00,
2013-04-18 15:20:00,71.5,58.2,29.89,SSE,165,6.0,6.0,63,0.00,,,0.00,Wunderground v.1.15,2013-04-18 19:20:00,
2013-04-18 15:30:00,71.8,58.1,29.89,SSW,201,6.0,7.0,62,0.00,,,0.00,Wunderground v.1.15,2013-04-18 19:30:00,
2013-04-18 15:40:00,71.1,58.3,29.89,South,175,6.0,6.0,64,0.00,,,0.00,Wunderground v.1.15,2013-04-18 19:40:00,
2013-04-18 15:50:00,71.5,57.8,29.88,South,183,5.0,8.0,62,0.00,,,0.00,Wunderground v.1.15,2013-04-18 19:50:00,
2013-04-18 16:00:00,71.8,58.5,29.88,SSW,205,5.0,6.0,63,0.00,,,0.00,Wunderground v.1.15,2013-04-18 20:00:00,
2013-04-18 16:10:00,71.8,58.1,29.88,South,169,6.0,6.0,62,0.00,,,0.00,Wunderground v.1.15,2013-04-18 20:10:00,
2013-04-18 16:20:00,71.5,57.8,29.87,SSE,157,4.0,6.0,62,0.00,,,0.00,Wunderground v.1.15,2013-04-18 20:20:00,
2013-04-18 16:30:00,71.4,57.7,29.87,South,185,5.0,8.0,62,0.00,,,0.00,Wunderground v.1.15,2013-04-18 20:30:00,
2013-04-18 16:40:00,71.3,57.6,29.87,SW,225,5.0,5.0,62,0.00,,,0.00,Wunderground v.1.15,2013-04-18 20:40:00,
2013-04-18 16:50:00,72.6,58.4,29.87,South,191,4.0,7.0,61,0.00,,,0.00,Wunderground v.1.15,2013-04-18 20:50:00,
2013-04-18 17:00:00,73.9,58.7,29.86,SSW,192,5.0,6.0,59,0.00,,,0.00,Wunderground v.1.15,2013-04-18 21:00:00,
2013-04-18 17:10:00,73.9,57.7,29.86,South,169,6.0,7.0,57,0.00,,,0.00,Wunderground v.1.15,2013-04-18 21:10:00,
2013-04-18 17:20:00,73.5,56.3,29.86,South,171,6.0,6.0,55,0.00,,,0.00,Wunderground v.1.15,2013-04-18 21:20:00,
2013-04-18 17:30:00,72.8,55.7,29.86,SSW,213,5.0,5.0,55,0.00,,,0.00,Wunderground v.1.15,2013-04-18 21:30:00,
2013-04-18 17:40:00,71.8,55.3,29.86,SSW,198,6.0,9.0,56,0.00,,,0.00,Wunderground v.1.15,2013-04-18 21:40:00,
2013-04-18 17:50:00,71.3,55.3,29.85,SSW,198,5.0,5.0,57,0.00,,,0.00,Wunderground v.1.15,2013-04-18 21:50:00,
2013-04-18 18:00:00,70.9,54.9,29.85,SW,233,7.0,11.0,57,0.00,,,0.00,Wunderground v.1.15,2013-04-18 22:00:00,
2013-04-18 18:10:00,69.8,54.4,29.85,SSW,206,7.0,8.0,58,0.00,,,0.00,Wunderground v.1.15,2013-04-18 22:10:00,
2013-04-18 18:20:00,69.7,54.7,29.85,South,172,5.0,5.0,59,0.00,,,0.00,Wunderground v.1.15,2013-04-18 22:20:00,
2013-04-18 18:30:00,70.0,55.0,29.85,South,184,4.0,5.0,59,0.00,,,0.00,Wunderground v.1.15,2013-04-18 22:30:00,
2013-04-18 18:40:00,70.1,54.6,29.86,SSW,193,4.0,4.0,58,0.00,,,0.00,Wunderground v.1.15,2013-04-18 22:40:00,
2013-04-18 18:50:00,70.1,55.1,29.85,SSE,156,3.0,5.0,59,0.00,,,0.00,Wunderground v.1.15,2013-04-18 22:50:00,
2013-04-18 19:00:00,69.7,54.7,29.84,South,186,3.0,3.0,59,0.00,,,0.00,Wunderground v.1.15,2013-04-18 23:00:00,
2013-04-18 19:10:00,69.2,54.7,29.84,SSW,205,3.0,3.0,60,0.00,,,0.00,Wunderground v.1.15,2013-04-18 23:10:00,
2013-04-18 19:20:00,68.9,54.9,29.84,South,175,3.0,3.0,61,0.00,,,0.00,Wunderground v.1.15,2013-04-18 23:20:00,
2013-04-18 19:30:00,68.6,55.1,29.84,SSW,198,4.0,4.0,62,0.00,,,0.00,Wunderground v.1.15,2013-04-18 23:30:00,
2013-04-18 19:40:00,68.2,55.1,29.84,SSW,207,3.0,3.0,63,0.00,,,0.00,Wunderground v.1.15,2013-04-18 23:40:00,
2013-04-18 19:50:00,67.9,55.3,29.83,South,176,3.0,5.0,64,0.00,,,0.00,Wunderground v.1.15,2013-04-18 23:50:00,
2013-04-18 20:00:00,67.7,55.5,29.84,SSW,192,3.0,3.0,65,0.00,,,0.00,Wunderground v.1.15,2013-04-19 00:00:00,
2013-04-18 20:10:00,67.5,55.7,29.83,SSE,162,2.0,4.0,66,0.00,,,0.00,Wunderground v.1.15,2013-04-19 00:10:00,
2013-04-18 20:20:00,67.3,55.5,29.83,South,173,3.0,3.0,66,0.00,,,0.00,Wunderground v.1.15,2013-04-19 00:20:00,
2013-04-18 20:30:00,67.1,55.8,29.83,SSE,160,1.0,5.0,67,0.00,,,0.00,Wunderground v.1.15,2013-04-19 00:30:00,
2013-04-18 20:40:00,66.9,56.0,29.83,SSW,200,1.0,3.0,68,0.00,,,0.00,Wunderground v.1.15,2013-04-19 00:40:00,
2013-04-18 20:50:00,66.7,55.8,29.83,SSW,205,2.0,2.0,68,0.00,,,0.00,Wunderground v.1.15,2013-04-19 00:50:00,
2013-04-18 21:00:00,66.3,55.8,29.84,South,173,1.0,1.0,69,0.00,,,0.00,Wunderground v.1.15,2013-04-19 01:00:00,
2013-04-18 21:10:00,66.1,55.6,29.84,SSW,198,1.0,1.0,69,0.00,,,0.00,Wunderground v.1.15,2013-04-19 01:10:00,
2013-04-18 21:20:00,66.0,55.9,29.84,South,173,0.0,0.0,70,0.00,,,0.00,Wunderground v.1.15,2013-04-19 01:20:00,
2013-04-18 21:30:00,65.9,56.2,29.84,South,173,0.0,0.0,71,0.00,,,0.00,Wunderground v.1.15,2013-04-19 01:30:00,
2013-04-18 21:40:00,65.8,56.1,29.84,South,184,0.0,0.0,71,0.00,,,0.00,Wunderground v.1.15,2013-04-19 01:40:00,
2013-04-18 21:50:00,65.6,56.3,29.84,South,183,0.0,0.0,72,0.00,,,0.00,Wunderground v.1.15,2013-04-19 01:50:00,
2013-04-18 22:00:00,65.4,56.1,29.84,South,183,0.0,0.0,72,0.00,,,0.00,Wunderground v.1.15,2013-04-19 02:00:00,
2013-04-18 22:10:00,65.3,56.0,29.83,South,178,0.0,0.0,72,0.00,,,0.00,Wunderground v.1.15,2013-04-19 02:10:00,
2013-04-18 22:20:00,65.3,56.4,29.83,South,178,0.0,0.0,73,0.00,,,0.00,Wunderground v.1.15,2013-04-19 02:20:00,
2013-04-18 22:30:00,65.1,56.2,29.83,South,175,0.0,1.0,73,0.00,,,0.00,Wunderground v.1.15,2013-04-19 02:30:00,
2013-04-18 22:40:00,64.9,56.4,29.82,SSW,193,0.0,0.0,74,0.00,,,0.00,Wunderground v.1.15,2013-04-19 02:40:00,
2013-04-18 22:50:00,64.8,56.3,29.81,SSW,193,0.0,0.0,74,0.00,,,0.00,Wunderground v.1.15,2013-04-19 02:50:00,
2013-04-18 23:00:00,64.7,56.6,29.81,SSW,193,0.0,0.0,75,0.00,,,0.00,Wunderground v.1.15,2013-04-19 03:00:00,
2013-04-18 23:10:00,64.6,56.5,29.81,SSW,192,0.0,0.0,75,0.00,,,0.00,Wunderground v.1.15,2013-04-19 03:10:00,
2013-04-18 23:20:00,64.6,56.5,29.80,South,175,1.0,1.0,75,0.00,,,0.00,Wunderground v.1.15,2013-04-19 03:20:00,
2013-04-18 23:30:00,64.7,56.6,29.80,South,188,1.0,1.0,75,0.00,,,0.00,Wunderground v.1.15,2013-04-19 03:30:00,
2013-04-18 23:40:00,64.7,56.6,29.79,SSW,203,1.0,1.0,75,0.00,,,0.00,Wunderground v.1.15,2013-04-19 03:40:00,
2013-04-18 23:50:00,64.7,57.0,29.79,South,182,1.0,3.0,76,0.00,,,0.00,Wunderground v.1.15,2013-04-19 03:50:00,